Time;durP1;ratioP1;P1;durP2;ratioP2;P2;SDS_P1;SDS_P2;PMS_P1;PMS_P2;Temp;Humidity;BMP_temperature;BMP_pressure;BME280_temperature;BME280_humidity;BME280_pressure;Samples;Min_cycle;Max_cycle;Signal;HPM_P1;HPM_P2
2022/11/12 00:01:04;;;;;;;;;;;4.80;99.90;;;;;;5109377;28;19924;-71
2022/11/12 00:03:30;;;;;;;;;;;4.80;99.90;;;;;;5100868;28;20022;-71
2022/11/12 00:05:58;;;;;;;;;;;4.80;99.90;;;;;;5100974;28;20018;-71
2022/11/12 00:08:25;;;;;;;;;;;4.70;99.90;;;;;;5099055;28;19924;-71
2022/11/12 00:10:52;;;;;;;;;;;4.80;99.90;;;;;;5099335;28;19924;-71
2022/11/12 00:13:18;;;;;;;;;;;4.80;99.90;;;;;;5103105;28;20030;-71
2022/11/12 00:15:46;;;;;;;;;;;4.80;99.90;;;;;;5094530;28;19946;-71
2022/11/12 00:18:12;;;;;;;;;;;4.80;99.90;;;;;;5109793;28;19931;-71
2022/11/12 00:20:39;;;;;;;;;;;4.80;99.90;;;;;;5105346;28;20379;-72
2022/11/12 00:23:07;;;;;;;;;;;4.80;99.90;;;;;;5110927;28;19946;-72
2022/11/12 00:25:34;;;;;;;;;;;4.70;99.90;;;;;;5112214;28;19924;-71
2022/11/12 00:28:02;;;;;;;;;;;4.60;99.90;;;;;;5111948;28;20018;-71
2022/11/12 00:30:28;;;;;;;;;;;4.60;99.90;;;;;;5111535;28;20438;-71
2022/11/12 00:32:55;;;;;;;;;;;4.60;99.90;;;;;;5109239;28;19975;-71
2022/11/12 00:35:22;;;;;;;;;;;4.60;99.90;;;;;;5124261;28;20018;-71
2022/11/12 00:37:53;;;;;;;;;;;4.70;99.90;;;;;;5111419;28;20489;-71
2022/11/12 00:40:21;;;;;;;;;;;4.80;99.90;;;;;;5112050;28;20132;-72
2022/11/12 00:42:47;;;;;;;;;;;4.90;99.90;;;;;;5112168;28;20019;-71
2022/11/12 00:45:14;;;;;;;;;;;4.90;99.90;;;;;;5111319;28;20015;-71
2022/11/12 00:47:41;;;;;;;;;;;4.90;99.90;;;;;;5111579;28;20464;-71
2022/11/12 00:50:08;;;;;;;;;;;5.10;99.90;;;;;;5114572;28;20461;-72
2022/11/12 00:52:35;;;;;;;;;;;5.20;99.90;;;;;;5113689;28;20058;-71
2022/11/12 00:55:01;;;;;;;;;;;5.20;99.90;;;;;;5115101;28;20019;-71
2022/11/12 00:57:29;;;;;;;;;;;5.20;99.90;;;;;;5110873;28;19924;-71
2022/11/12 00:59:56;;;;;;;;;;;5.20;99.90;;;;;;5116587;28;19937;-71
2022/11/12 01:02:23;;;;;;;;;;;5.10;99.90;;;;;;5114643;28;19930;-71
2022/11/12 01:04:49;;;;;;;;;;;5.00;99.90;;;;;;5116129;28;19928;-71
2022/11/12 01:07:16;;;;;;;;;;;5.10;99.90;;;;;;5114575;28;19924;-71
2022/11/12 01:09:42;;;;;;;;;;;5.00;99.90;;;;;;5115037;28;20360;-71
2022/11/12 01:12:09;;;;;;;;;;;4.90;99.90;;;;;;5115254;28;19923;-71
2022/11/12 01:14:37;;;;;;;;;;;5.00;99.90;;;;;;5115940;28;19923;-71
2022/11/12 01:17:04;;;;;;;;;;;4.90;99.90;;;;;;5113699;28;19924;-71
2022/11/12 01:19:30;;;;;;;;;;;4.90;99.90;;;;;;5116114;28;19930;-71
2022/11/12 01:21:57;;;;;;;;;;;4.90;99.90;;;;;;5115939;28;20002;-71
2022/11/12 01:24:24;;;;;;;;;;;4.90;99.90;;;;;;5115606;28;20007;-71
2022/11/12 01:26:50;;;;;;;;;;;4.80;99.90;;;;;;5113948;28;20047;-71
2022/11/12 01:29:17;;;;;;;;;;;4.70;99.90;;;;;;5111067;28;20022;-71
2022/11/12 01:31:45;;;;;;;;;;;4.70;99.90;;;;;;5097536;28;19924;-71
2022/11/12 01:34:12;;;;;;;;;;;4.70;99.90;;;;;;5112614;28;20006;-71
2022/11/12 01:36:39;;;;;;;;;;;4.60;99.90;;;;;;5101814;28;19924;-71
2022/11/12 01:39:06;;;;;;;;;;;4.60;99.90;;;;;;5113526;28;19930;-71
2022/11/12 01:41:34;;;;;;;;;;;4.60;99.90;;;;;;5115511;28;20015;-71
2022/11/12 01:44:08;;;;;;;;;;;4.50;99.90;;;;;;5094916;28;20302;-71
2022/11/12 01:46:37;;;;;;;;;;;4.60;99.90;;;;;;5112940;28;20445;-71
2022/11/12 01:49:07;;;;;;;;;;;4.60;99.90;;;;;;5114971;28;19924;-71
2022/11/12 01:51:34;;;;;;;;;;;4.70;99.90;;;;;;5114982;28;19947;-71
2022/11/12 01:54:03;;;;;;;;;;;4.70;99.90;;;;;;5113651;28;20481;-71
2022/11/12 01:56:30;;;;;;;;;;;4.70;99.90;;;;;;5099484;28;19938;-71
2022/11/12 01:59:01;;;;;;;;;;;4.60;99.90;;;;;;5106859;28;19930;-70
2022/11/12 02:01:27;;;;;;;;;;;4.60;99.90;;;;;;5111906;28;20293;-70
2022/11/12 02:03:54;;;;;;;;;;;4.50;99.90;;;;;;5115376;28;19924;-70
2022/11/12 02:06:23;;;;;;;;;;;4.50;99.90;;;;;;5115016;28;20306;-71
2022/11/12 02:08:50;;;;;;;;;;;4.50;99.90;;;;;;5114109;28;19930;-71
2022/11/12 02:11:17;;;;;;;;;;;4.50;99.90;;;;;;5113847;28;20383;-71
2022/11/12 02:14:00;;;;;;;;;;;4.50;99.90;;;;;;5114659;28;19924;-71
2022/11/12 02:16:28;;;;;;;;;;;4.50;99.90;;;;;;5113655;28;20018;-70
2022/11/12 02:18:55;;;;;;;;;;;4.50;99.90;;;;;;5130376;28;19939;-71
2022/11/12 02:21:23;;;;;;;;;;;4.40;99.90;;;;;;5124550;28;19928;-70
2022/11/12 02:23:56;;;;;;;;;;;4.40;99.90;;;;;;5112040;28;20382;-71
2022/11/12 02:26:23;;;;;;;;;;;4.40;99.90;;;;;;5112848;28;20010;-71
2022/11/12 02:28:50;;;;;;;;;;;4.40;99.90;;;;;;5111816;28;20434;-70
2022/11/12 02:31:16;;;;;;;;;;;4.40;99.90;;;;;;5110011;28;20014;-70
2022/11/12 02:33:43;;;;;;;;;;;4.40;99.90;;;;;;5111496;28;19923;-71
2022/11/12 02:36:10;;;;;;;;;;;4.40;99.90;;;;;;5113687;28;20362;-70
2022/11/12 02:38:38;;;;;;;;;;;4.30;99.90;;;;;;5110819;28;19924;-70
2022/11/12 02:41:04;;;;;;;;;;;4.30;99.90;;;;;;5109362;28;19935;-71
2022/11/12 02:43:31;;;;;;;;;;;4.30;99.90;;;;;;5111702;28;19927;-71
2022/11/12 02:45:58;;;;;;;;;;;4.20;99.90;;;;;;5114266;28;20010;-71
2022/11/12 02:48:24;;;;;;;;;;;4.10;99.90;;;;;;5113251;28;20010;-70
2022/11/12 02:50:51;;;;;;;;;;;4.10;99.90;;;;;;5112061;28;19927;-70
2022/11/12 02:53:18;;;;;;;;;;;4.10;99.90;;;;;;5111589;28;19946;-71
2022/11/12 02:55:46;;;;;;;;;;;4.10;99.90;;;;;;5095050;28;20382;-71
2022/11/12 02:58:12;;;;;;;;;;;4.10;99.90;;;;;;5113081;28;20019;-71
2022/11/12 03:00:39;;;;;;;;;;;4.10;99.90;;;;;;5112506;28;20309;-71
2022/11/12 03:03:06;;;;;;;;;;;4.20;99.90;;;;;;5113932;28;19945;-71
2022/11/12 03:05:33;;;;;;;;;;;4.20;99.90;;;;;;5113793;28;19946;-70
2022/11/12 03:08:01;;;;;;;;;;;4.20;99.90;;;;;;5103025;28;20018;-71
2022/11/12 03:10:28;;;;;;;;;;;4.20;99.90;;;;;;5111918;28;20023;-70
2022/11/12 03:12:57;;;;;;;;;;;4.20;99.90;;;;;;5113070;28;19930;-71
2022/11/12 03:15:25;;;;;;;;;;;4.10;99.90;;;;;;5113183;28;19971;-70
2022/11/12 03:17:51;;;;;;;;;;;4.10;99.90;;;;;;5113324;28;20018;-70
2022/11/12 03:20:18;;;;;;;;;;;4.10;99.90;;;;;;5112643;28;19924;-70
2022/11/12 03:22:54;;;;;;;;;;;4.10;99.90;;;;;;5106911;28;20301;-70
2022/11/12 03:25:21;;;;;;;;;;;4.00;99.90;;;;;;5108245;28;19970;-70
2022/11/12 03:27:47;;;;;;;;;;;3.90;99.90;;;;;;5111091;28;20279;-70
2022/11/12 03:30:15;;;;;;;;;;;3.90;99.90;;;;;;5111483;28;20408;-70
2022/11/12 03:32:42;;;;;;;;;;;4.00;99.90;;;;;;5110925;28;19928;-69
2022/11/12 03:35:09;;;;;;;;;;;3.90;99.90;;;;;;5111877;28;19933;-70
2022/11/12 03:37:35;;;;;;;;;;;4.00;99.90;;;;;;5101461;28;20398;-70
2022/11/12 03:40:03;;;;;;;;;;;4.00;99.90;;;;;;5110673;28;19934;-71
2022/11/12 03:42:29;;;;;;;;;;;3.90;99.90;;;;;;5111255;28;19924;-71
2022/11/12 03:44:56;;;;;;;;;;;3.80;99.90;;;;;;5112462;28;19931;-71
2022/11/12 03:47:24;;;;;;;;;;;3.80;99.90;;;;;;5112319;28;19924;-71
2022/11/12 03:49:50;;;;;;;;;;;3.80;99.90;;;;;;5112055;28;19928;-71
2022/11/12 03:52:17;;;;;;;;;;;3.80;99.90;;;;;;5112069;28;20264;-71
2022/11/12 03:54:44;;;;;;;;;;;3.80;99.90;;;;;;5098139;28;19930;-71
2022/11/12 03:57:10;;;;;;;;;;;3.80;99.90;;;;;;5104026;28;19935;-71
2022/11/12 03:59:37;;;;;;;;;;;3.80;99.90;;;;;;5109396;28;20015;-70
2022/11/12 04:02:04;;;;;;;;;;;3.80;99.90;;;;;;5113265;28;20006;-71
2022/11/12 04:09:56;;;;;;;;;;;3.90;99.90;;;;;;5105608;28;19931;-70
2022/11/12 04:15:07;;;;;;;;;;;4.00;99.90;;;;;;5094936;28;20340;-70
2022/11/12 04:23:03;;;;;;;;;;;3.90;99.90;;;;;;5110697;28;19931;-70
2022/11/12 04:28:14;;;;;;;;;;;3.80;99.90;;;;;;5109589;28;19997;-70
2022/11/12 04:30:40;;;;;;;;;;;3.70;99.90;;;;;;5110981;28;19938;-70
2022/11/12 04:33:07;;;;;;;;;;;3.70;99.90;;;;;;5106803;28;20365;-71
2022/11/12 04:35:35;;;;;;;;;;;3.70;99.90;;;;;;5112889;28;19930;-70
2022/11/12 04:38:01;;;;;;;;;;;3.70;99.90;;;;;;5110640;28;19924;-69
2022/11/12 04:46:09;;;;;;;;;;;3.80;99.90;;;;;;5029884;28;19929;-70
2022/11/12 04:48:36;;;;;;;;;;;3.90;99.90;;;;;;5084255;28;20019;-70
2022/11/12 04:52:03;;;;;;;;;;;3.80;99.90;;;;;;5112304;28;19927;-69
2022/11/12 04:53:52;;;;;;;;;;;3.80;99.90;;;;;;5108753;28;19931;-69
2022/11/12 04:56:18;;;;;;;;;;;3.80;99.90;;;;;;5111817;28;19930;-69
2022/11/12 04:58:45;;;;;;;;;;;3.90;99.90;;;;;;5108620;28;20049;-69
2022/11/12 05:01:11;;;;;;;;;;;4.00;99.90;;;;;;5102071;28;19966;-69
2022/11/12 05:03:38;;;;;;;;;;;4.10;99.90;;;;;;5112435;28;19924;-69
2022/11/12 05:06:50;;;;;;;;;;;4.10;99.90;;;;;;5110308;28;19924;-70
2022/11/12 05:08:54;;;;;;;;;;;4.10;99.90;;;;;;5109998;28;19927;-69
2022/11/12 05:11:21;;;;;;;;;;;4.00;99.90;;;;;;5109126;28;20023;-70
2022/11/12 05:13:47;;;;;;;;;;;4.00;99.90;;;;;;5111425;28;20336;-69
2022/11/12 05:16:14;;;;;;;;;;;4.00;99.90;;;;;;5112525;28;20437;-70
2022/11/12 05:18:41;;;;;;;;;;;4.00;99.90;;;;;;5110855;28;19923;-69
2022/11/12 05:23:49;;;;;;;;;;;4.00;99.90;;;;;;5110846;28;19924;-69
2022/11/12 05:26:16;;;;;;;;;;;4.00;99.90;;;;;;5112686;28;19924;-70
2022/11/12 05:28:43;;;;;;;;;;;4.00;99.90;;;;;;5110953;28;19931;-70
2022/11/12 05:31:09;;;;;;;;;;;4.00;99.90;;;;;;5111646;28;20006;-70
2022/11/12 05:33:36;;;;;;;;;;;4.00;99.90;;;;;;5111044;28;20011;-70
2022/11/12 05:36:03;;;;;;;;;;;4.10;99.90;;;;;;5113755;28;20015;-71
2022/11/12 05:38:31;;;;;;;;;;;4.00;99.90;;;;;;5113321;28;19924;-68
2022/11/12 05:40:57;;;;;;;;;;;4.00;99.90;;;;;;5113324;28;20014;-71
2022/11/12 05:43:24;;;;;;;;;;;4.00;99.90;;;;;;5110123;28;19930;-71
2022/11/12 05:45:51;;;;;;;;;;;3.90;99.90;;;;;;5116239;28;19934;-71
2022/11/12 05:48:17;;;;;;;;;;;3.80;99.90;;;;;;5116053;28;20018;-70
2022/11/12 05:50:44;;;;;;;;;;;3.70;99.90;;;;;;5123638;28;19923;-71
2022/11/12 05:53:11;;;;;;;;;;;3.70;99.90;;;;;;5118738;28;19923;-69
2022/11/12 05:55:39;;;;;;;;;;;3.60;99.90;;;;;;5113443;28;19923;-69
2022/11/12 05:58:05;;;;;;;;;;;3.50;99.90;;;;;;5113125;28;19930;-69
2022/11/12 06:00:37;;;;;;;;;;;3.50;99.90;;;;;;5111321;28;19932;-70
2022/11/12 06:03:04;;;;;;;;;;;3.50;99.90;;;;;;5111672;28;19992;-70
2022/11/12 06:05:31;;;;;;;;;;;3.50;99.90;;;;;;5112259;28;20285;-71
2022/11/12 06:07:58;;;;;;;;;;;3.60;99.90;;;;;;5111868;28;20014;-70
2022/11/12 06:10:25;;;;;;;;;;;3.60;99.90;;;;;;5102594;28;20011;-71
2022/11/12 06:12:53;;;;;;;;;;;3.60;99.90;;;;;;5114708;28;20014;-70
2022/11/12 06:15:20;;;;;;;;;;;3.60;99.90;;;;;;5114094;28;19962;-71
2022/11/12 06:17:46;;;;;;;;;;;3.60;99.90;;;;;;5114532;28;20015;-71
2022/11/12 06:20:13;;;;;;;;;;;3.70;99.90;;;;;;5114177;28;19924;-71
2022/11/12 06:22:40;;;;;;;;;;;3.80;99.90;;;;;;5113529;28;20382;-71
2022/11/12 06:25:07;;;;;;;;;;;3.80;99.90;;;;;;5113398;28;19928;-70
2022/11/12 06:27:33;;;;;;;;;;;3.80;99.90;;;;;;5112519;28;20012;-71
2022/11/12 06:30:01;;;;;;;;;;;3.80;99.90;;;;;;5113428;28;19924;-71
2022/11/12 06:32:28;;;;;;;;;;;3.80;99.90;;;;;;5110977;28;19924;-67
2022/11/12 06:34:55;;;;;;;;;;;3.90;99.90;;;;;;5113011;28;19930;-68
2022/11/12 06:37:21;;;;;;;;;;;3.90;99.90;;;;;;5112751;28;19946;-68
2022/11/12 06:39:48;;;;;;;;;;;4.00;99.90;;;;;;5096136;28;20003;-67
2022/11/12 06:42:15;;;;;;;;;;;4.00;99.90;;;;;;5111005;28;20407;-71
2022/11/12 06:44:42;;;;;;;;;;;3.90;99.90;;;;;;5113680;28;19930;-71
2022/11/12 06:47:10;;;;;;;;;;;3.80;99.90;;;;;;5112915;28;20018;-72
2022/11/12 06:49:37;;;;;;;;;;;3.60;99.90;;;;;;5113367;28;19923;-71
2022/11/12 06:52:03;;;;;;;;;;;3.60;99.90;;;;;;5110900;28;19942;-71
2022/11/12 06:54:30;;;;;;;;;;;3.50;99.90;;;;;;5114155;28;19923;-71
2022/11/12 06:56:57;;;;;;;;;;;3.60;99.90;;;;;;5112552;28;20010;-71
2022/11/12 06:59:23;;;;;;;;;;;3.60;99.90;;;;;;5113086;28;19928;-72
2022/11/12 07:01:50;;;;;;;;;;;3.60;99.90;;;;;;5111757;28;19924;-71
2022/11/12 07:04:18;;;;;;;;;;;3.70;99.90;;;;;;5109344;28;19924;-72
2022/11/12 07:06:45;;;;;;;;;;;3.70;99.90;;;;;;5110497;28;19930;-72
2022/11/12 07:09:11;;;;;;;;;;;3.80;99.90;;;;;;5112902;28;20030;-72
2022/11/12 07:11:38;;;;;;;;;;;3.90;99.90;;;;;;5110554;28;19982;-71
2022/11/12 07:14:05;;;;;;;;;;;3.90;99.90;;;;;;5110930;28;20409;-72
2022/11/12 07:16:32;;;;;;;;;;;4.10;99.90;;;;;;5110143;28;19939;-72
2022/11/12 07:18:58;;;;;;;;;;;4.00;99.90;;;;;;5112256;28;19924;-72
2022/11/12 07:21:27;;;;;;;;;;;4.00;99.90;;;;;;5105714;28;20026;-73
2022/11/12 07:23:53;;;;;;;;;;;4.00;99.90;;;;;;5110769;28;19924;-73
2022/11/12 07:26:21;;;;;;;;;;;4.00;99.90;;;;;;5112410;28;20019;-72
2022/11/12 07:28:49;;;;;;;;;;;3.90;99.90;;;;;;5109092;28;20081;-75
2022/11/12 07:31:16;;;;;;;;;;;3.90;99.90;;;;;;5104183;28;19924;-72
2022/11/12 07:33:43;;;;;;;;;;;3.80;99.90;;;;;;5110947;28;20638;-73
2022/11/12 07:36:10;;;;;;;;;;;3.80;99.90;;;;;;5107033;28;20006;-70
2022/11/12 07:38:39;;;;;;;;;;;3.70;99.90;;;;;;5111153;28;19923;-69
2022/11/12 07:41:07;;;;;;;;;;;3.80;99.90;;;;;;5107771;28;20433;-71
2022/11/12 07:43:35;;;;;;;;;;;4.00;99.90;;;;;;5113251;28;19924;-70
2022/11/12 07:46:02;;;;;;;;;;;4.10;99.90;;;;;;5110813;28;19923;-71
2022/11/12 07:48:30;;;;;;;;;;;4.20;99.90;;;;;;5111378;28;19963;-72
2022/11/12 07:51:00;;;;;;;;;;;4.30;99.90;;;;;;5110599;28;19931;-72
2022/11/12 07:53:27;;;;;;;;;;;4.40;99.90;;;;;;5112094;28;19974;-71
2022/11/12 07:55:55;;;;;;;;;;;4.40;99.90;;;;;;5110840;28;19923;-73
2022/11/12 07:58:22;;;;;;;;;;;4.50;99.90;;;;;;5105655;28;19953;-72
2022/11/12 08:00:49;;;;;;;;;;;4.50;99.90;;;;;;5109872;28;19932;-72
2022/11/12 08:03:16;;;;;;;;;;;4.70;99.90;;;;;;5108314;28;20366;-71
2022/11/12 08:05:43;;;;;;;;;;;4.80;99.90;;;;;;5109153;28;19946;-72
2022/11/12 08:08:09;;;;;;;;;;;5.50;99.90;;;;;;5111892;28;19924;-72
2022/11/12 08:10:36;;;;;;;;;;;7.50;99.90;;;;;;5112338;28;19924;-72
2022/11/12 08:13:04;;;;;;;;;;;9.00;99.90;;;;;;5112139;28;20006;-71
2022/11/12 08:15:31;;;;;;;;;;;9.80;99.90;;;;;;5105962;28;19923;-72
2022/11/12 08:17:58;;;;;;;;;;;10.10;99.90;;;;;;5110702;28;19928;-73
2022/11/12 08:20:25;;;;;;;;;;;10.60;99.90;;;;;;5110105;28;19924;-74
2022/11/12 08:23:04;;;;;;;;;;;11.70;99.90;;;;;;5108825;28;20431;-75
2022/11/12 08:25:30;;;;;;;;;;;12.50;99.90;;;;;;5111033;28;19923;-72
2022/11/12 08:27:58;;;;;;;;;;;12.80;99.90;;;;;;5109353;28;20294;-74
2022/11/12 08:30:26;;;;;;;;;;;12.80;99.90;;;;;;5108368;28;20310;-73
2022/11/12 08:32:56;;;;;;;;;;;13.40;99.90;;;;;;5105505;28;19924;-73
2022/11/12 08:35:23;;;;;;;;;;;13.60;99.90;;;;;;5109121;28;19928;-73
2022/11/12 08:37:50;;;;;;;;;;;12.90;99.90;;;;;;5106733;28;19934;-73
2022/11/12 08:40:16;;;;;;;;;;;13.20;99.90;;;;;;5109525;28;19924;-74
2022/11/12 08:42:43;;;;;;;;;;;13.10;99.90;;;;;;5107309;28;19932;-73
2022/11/12 08:45:10;;;;;;;;;;;13.70;99.90;;;;;;5108777;28;20021;-72
2022/11/12 08:47:38;;;;;;;;;;;13.60;99.90;;;;;;5108007;28;20006;-73
2022/11/12 08:50:05;;;;;;;;;;;13.80;99.90;;;;;;5110328;28;20364;-74
2022/11/12 08:52:32;;;;;;;;;;;13.60;99.90;;;;;;5108195;28;19936;-74
2022/11/12 08:54:59;;;;;;;;;;;14.50;99.90;;;;;;5108790;28;19924;-74
2022/11/12 08:57:26;;;;;;;;;;;15.40;99.90;;;;;;5108555;28;20031;-74
2022/11/12 08:59:52;;;;;;;;;;;16.10;95.50;;;;;;5105179;28;19924;-74
2022/11/12 09:02:19;;;;;;;;;;;16.30;93.90;;;;;;5103478;28;19931;-73
2022/11/12 09:04:47;;;;;;;;;;;16.80;90.80;;;;;;5108690;28;19974;-74
2022/11/12 09:07:13;;;;;;;;;;;16.70;86.00;;;;;;5105586;28;20668;-73
2022/11/12 09:09:40;;;;;;;;;;;16.60;86.10;;;;;;5106434;28;19950;-73
2022/11/12 09:12:07;;;;;;;;;;;16.40;88.90;;;;;;5105909;28;19931;-73
2022/11/12 09:14:34;;;;;;;;;;;15.10;93.00;;;;;;5112505;28;19924;-73
2022/11/12 09:17:00;;;;;;;;;;;13.70;99.90;;;;;;5113472;28;19946;-73
2022/11/12 09:19:27;;;;;;;;;;;12.30;99.90;;;;;;5107612;28;20018;-72
2022/11/12 09:21:55;;;;;;;;;;;11.70;99.90;;;;;;5114061;28;20027;-73
2022/11/12 09:24:22;;;;;;;;;;;11.30;99.90;;;;;;5115157;28;20356;-72
2022/11/12 09:26:52;;;;;;;;;;;11.00;99.90;;;;;;5098998;28;20002;-72
2022/11/12 09:29:18;;;;;;;;;;;10.70;99.90;;;;;;5114555;28;20046;-74
2022/11/12 09:31:45;;;;;;;;;;;10.60;99.90;;;;;;5114696;28;19959;-73
2022/11/12 09:34:12;;;;;;;;;;;10.50;99.90;;;;;;5112649;28;19994;-72
2022/11/12 09:36:39;;;;;;;;;;;10.40;99.90;;;;;;5114361;28;20397;-72
2022/11/12 09:39:07;;;;;;;;;;;10.40;99.90;;;;;;5114677;28;19981;-73
2022/11/12 09:41:34;;;;;;;;;;;10.30;99.90;;;;;;5111104;28;19924;-73
2022/11/12 09:44:02;;;;;;;;;;;10.30;99.90;;;;;;5104359;28;19932;-72
2022/11/12 09:46:36;;;;;;;;;;;10.20;99.90;;;;;;5109033;28;20279;-73
2022/11/12 09:49:06;;;;;;;;;;;10.20;99.90;;;;;;5109600;28;20012;-72
2022/11/12 09:51:34;;;;;;;;;;;10.20;99.90;;;;;;5113025;28;19924;-72
2022/11/12 09:54:04;;;;;;;;;;;10.30;99.90;;;;;;5105039;28;20015;-71
2022/11/12 09:56:32;;;;;;;;;;;10.40;99.90;;;;;;5113273;28;20015;-72
2022/11/12 09:58:58;;;;;;;;;;;10.50;99.90;;;;;;5113179;28;20392;-72
2022/11/12 10:01:37;;;;;;;;;;;10.60;99.90;;;;;;5111527;28;19963;-72
2022/11/12 10:04:14;;;;;;;;;;;10.60;99.90;;;;;;5114069;28;20019;-74
2022/11/12 10:06:45;;;;;;;;;;;10.70;99.90;;;;;;5102184;28;20014;-73
2022/11/12 10:09:16;;;;;;;;;;;10.70;99.90;;;;;;5103033;28;20014;-73
2022/11/12 10:14:48;;;;;;;;;;;10.90;99.90;;;;;;5112856;28;19931;-74
2022/11/12 10:17:18;;;;;;;;;;;11.00;99.90;;;;;;5109848;28;20036;-73
2022/11/12 10:19:49;;;;;;;;;;;11.10;99.90;;;;;;5109569;28;19964;-73
2022/11/12 10:22:23;;;;;;;;;;;11.10;99.90;;;;;;5108572;28;20511;-73
2022/11/12 10:24:50;;;;;;;;;;;11.20;99.90;;;;;;5111859;28;20024;-73
2022/11/12 10:27:20;;;;;;;;;;;11.20;99.90;;;;;;5112070;28;20360;-74
2022/11/12 10:29:49;;;;;;;;;;;11.30;99.90;;;;;;5112383;28;20276;-73
2022/11/12 10:32:16;;;;;;;;;;;11.40;99.90;;;;;;5107985;28;20023;-73
2022/11/12 10:34:42;;;;;;;;;;;11.50;99.90;;;;;;5108800;28;19924;-73
2022/11/12 10:37:12;;;;;;;;;;;11.60;99.90;;;;;;5112719;28;19966;-73
2022/11/12 10:39:40;;;;;;;;;;;11.70;99.90;;;;;;5112490;28;20293;-73
2022/11/12 10:42:08;;;;;;;;;;;11.70;99.90;;;;;;5107820;28;19923;-73
2022/11/12 10:44:37;;;;;;;;;;;11.80;99.90;;;;;;5106631;28;19924;-73
2022/11/12 10:47:18;;;;;;;;;;;11.90;99.90;;;;;;5106649;28;20003;-73
2022/11/12 10:49:59;;;;;;;;;;;12.00;99.90;;;;;;5101201;28;20103;-72
2022/11/12 10:52:25;;;;;;;;;;;12.20;99.90;;;;;;5101275;28;19928;-73
2022/11/12 10:55:02;;;;;;;;;;;12.30;99.90;;;;;;5103385;28;19938;-73
2022/11/12 10:57:29;;;;;;;;;;;12.40;99.90;;;;;;5098012;28;19932;-73
2022/11/12 11:00:07;;;;;;;;;;;12.50;99.90;;;;;;5101487;28;19924;-73
2022/11/12 11:02:34;;;;;;;;;;;12.50;99.90;;;;;;5106651;28;19924;-72
2022/11/12 11:05:19;;;;;;;;;;;12.50;99.90;;;;;;5108019;28;19930;-71
2022/11/12 11:07:49;;;;;;;;;;;12.60;99.90;;;;;;5107957;28;19939;-71
2022/11/12 11:10:22;;;;;;;;;;;12.70;99.90;;;;;;5111262;28;19982;-70
2022/11/12 11:12:51;;;;;;;;;;;12.70;99.90;;;;;;5103878;28;20440;-69
2022/11/12 11:15:21;;;;;;;;;;;12.70;99.90;;;;;;5101004;28;19978;-72
2022/11/12 11:17:47;;;;;;;;;;;12.90;99.90;;;;;;5110815;28;20006;-73
2022/11/12 11:20:17;;;;;;;;;;;12.80;99.90;;;;;;5105529;28;19931;-72
2022/11/12 11:22:45;;;;;;;;;;;12.90;99.90;;;;;;5097605;28;20027;-72
2022/11/12 11:25:20;;;;;;;;;;;13.00;99.90;;;;;;5100000;28;20068;-72
2022/11/12 11:27:55;;;;;;;;;;;13.00;99.90;;;;;;5101001;28;19932;-73
2022/11/12 11:30:23;;;;;;;;;;;13.20;99.90;;;;;;5101454;28;19930;-72
2022/11/12 11:33:05;;;;;;;;;;;13.30;99.90;;;;;;5100045;28;20019;-72
2022/11/12 11:35:38;;;;;;;;;;;13.40;99.90;;;;;;5101321;28;19981;-73
2022/11/12 11:38:12;;;;;;;;;;;13.50;99.90;;;;;;5099534;28;20302;-72
2022/11/12 11:40:44;;;;;;;;;;;13.60;99.90;;;;;;5102514;28;20019;-73
2022/11/12 11:43:29;;;;;;;;;;;13.60;99.90;;;;;;5107915;28;19963;-72
2022/11/12 11:46:04;;;;;;;;;;;13.70;99.90;;;;;;5101844;28;19931;-73
2022/11/12 11:48:36;;;;;;;;;;;13.80;99.90;;;;;;5103582;28;19924;-73
2022/11/12 11:51:07;;;;;;;;;;;13.80;99.90;;;;;;5101757;28;20022;-73
2022/11/12 11:53:40;;;;;;;;;;;13.80;99.90;;;;;;5104262;28;20023;-73
2022/11/12 11:56:09;;;;;;;;;;;13.90;99.90;;;;;;5105008;28;20022;-73
2022/11/12 11:59:02;;;;;;;;;;;13.80;99.90;;;;;;5102758;28;20026;-74
2022/11/12 12:01:36;;;;;;;;;;;13.90;99.90;;;;;;5104940;28;20019;-72
2022/11/12 12:04:11;;;;;;;;;;;13.90;99.90;;;;;;5105475;28;20380;-73
2022/11/12 12:06:41;;;;;;;;;;;14.00;99.90;;;;;;5099184;28;19924;-73
2022/11/12 12:09:14;;;;;;;;;;;14.10;99.90;;;;;;5098655;28;20026;-72
2022/11/12 12:11:45;;;;;;;;;;;14.10;99.90;;;;;;5101430;28;20011;-73
2022/11/12 12:14:17;;;;;;;;;;;14.10;99.90;;;;;;5096359;28;19954;-73
2022/11/12 12:16:52;;;;;;;;;;;14.20;99.90;;;;;;5098281;28;19923;-73
2022/11/12 12:19:27;;;;;;;;;;;14.30;99.90;;;;;;5097834;28;20019;-74
2022/11/12 12:21:56;;;;;;;;;;;14.30;99.90;;;;;;5103783;28;19978;-74
2022/11/12 12:24:25;;;;;;;;;;;14.40;99.90;;;;;;5097637;28;19930;-74
2022/11/12 12:26:54;;;;;;;;;;;14.50;99.90;;;;;;5100725;28;20293;-74
2022/11/12 12:29:24;;;;;;;;;;;14.60;99.90;;;;;;5099463;28;19928;-74
2022/11/12 12:31:53;;;;;;;;;;;14.60;99.90;;;;;;5097544;28;19974;-74
2022/11/12 12:34:22;;;;;;;;;;;14.60;99.90;;;;;;5095842;28;20038;-73
2022/11/12 12:36:50;;;;;;;;;;;14.70;99.90;;;;;;5101650;28;19930;-74
2022/11/12 12:39:18;;;;;;;;;;;14.80;99.90;;;;;;5099183;28;20011;-74
2022/11/12 12:41:47;;;;;;;;;;;14.80;99.90;;;;;;5096761;28;19977;-73
2022/11/12 12:44:13;;;;;;;;;;;14.80;99.90;;;;;;5104916;28;19974;-74
2022/11/12 12:46:42;;;;;;;;;;;14.80;99.90;;;;;;5106757;28;19924;-74
2022/11/12 12:49:14;;;;;;;;;;;14.80;99.90;;;;;;5107420;28;19982;-73
2022/11/12 12:51:41;;;;;;;;;;;14.80;99.90;;;;;;5111482;28;20386;-73
2022/11/12 12:54:22;;;;;;;;;;;14.80;99.90;;;;;;5108700;28;20022;-74
2022/11/12 12:56:49;;;;;;;;;;;14.80;99.90;;;;;;5102658;28;20412;-73
2022/11/12 12:59:19;;;;;;;;;;;14.90;99.90;;;;;;5098580;28;19924;-73
2022/11/12 13:01:53;;;;;;;;;;;14.90;99.90;;;;;;5114439;28;19928;-74
2022/11/12 13:04:48;;;;;;;;;;;15.20;99.90;;;;;;5106633;28;20047;-75
2022/11/12 13:07:15;;;;;;;;;;;15.40;99.90;;;;;;5107199;28;20018;-74
2022/11/12 13:09:41;;;;;;;;;;;15.30;99.90;;;;;;5111365;28;19924;-73
2022/11/12 13:12:24;;;;;;;;;;;15.30;99.90;;;;;;5107626;28;19955;-73
2022/11/12 13:15:07;;;;;;;;;;;15.10;99.90;;;;;;5115450;28;19924;-74
2022/11/12 13:17:45;;;;;;;;;;;15.00;99.90;;;;;;5100032;28;19931;-73
2022/11/12 13:20:26;;;;;;;;;;;15.00;99.90;;;;;;5112909;28;19923;-73
2022/11/12 13:22:54;;;;;;;;;;;15.00;99.90;;;;;;5109087;28;20308;-73
2022/11/12 13:25:25;;;;;;;;;;;15.00;99.90;;;;;;5104954;28;20440;-73
2022/11/12 13:28:05;;;;;;;;;;;15.00;99.90;;;;;;5102263;28;20015;-73
2022/11/12 13:30:50;;;;;;;;;;;15.10;99.90;;;;;;5114120;28;20011;-74
2022/11/12 13:33:23;;;;;;;;;;;15.10;99.90;;;;;;5110917;28;19993;-75
2022/11/12 13:35:50;;;;;;;;;;;15.20;99.90;;;;;;5103741;28;20377;-75
2022/11/12 13:38:19;;;;;;;;;;;15.20;99.90;;;;;;5109050;28;20009;-73
2022/11/12 13:40:46;;;;;;;;;;;15.20;99.90;;;;;;5112748;28;19930;-74
2022/11/12 13:43:17;;;;;;;;;;;15.20;99.90;;;;;;5113351;28;20302;-73
2022/11/12 13:45:46;;;;;;;;;;;15.30;99.90;;;;;;5112745;28;20594;-73
2022/11/12 13:48:15;;;;;;;;;;;15.30;99.90;;;;;;5113605;28;20002;-73
2022/11/12 13:50:43;;;;;;;;;;;15.30;99.90;;;;;;5112369;28;19924;-71
2022/11/12 13:53:13;;;;;;;;;;;15.30;99.90;;;;;;5112548;28;20359;-71
2022/11/12 13:55:48;;;;;;;;;;;15.30;99.90;;;;;;5106048;28;20020;-72
2022/11/12 13:58:19;;;;;;;;;;;15.30;99.90;;;;;;5103653;28;19946;-73
2022/11/12 14:00:51;;;;;;;;;;;15.30;99.90;;;;;;5103247;28;19971;-73
2022/11/12 14:03:19;;;;;;;;;;;15.20;99.90;;;;;;5095656;28;19943;-73
2022/11/12 14:05:46;;;;;;;;;;;15.20;99.90;;;;;;5100123;28;19938;-74
2022/11/12 14:08:20;;;;;;;;;;;15.20;99.90;;;;;;5102862;28;20070;-74
2022/11/12 14:10:57;;;;;;;;;;;15.10;99.90;;;;;;5103391;28;19967;-75
2022/11/12 14:13:33;;;;;;;;;;;15.00;99.90;;;;;;5106227;28;19938;-75
2022/11/12 14:16:18;;;;;;;;;;;15.00;99.90;;;;;;5106877;28;20022;-75
2022/11/12 14:18:52;;;;;;;;;;;14.90;99.90;;;;;;5106539;28;20396;-75
2022/11/12 14:21:19;;;;;;;;;;;14.90;99.90;;;;;;5105459;28;19970;-74
2022/11/12 14:23:47;;;;;;;;;;;14.90;99.90;;;;;;5098996;28;20371;-75
2022/11/12 14:26:32;;;;;;;;;;;14.90;99.90;;;;;;5105453;28;19931;-76
2022/11/12 14:28:59;;;;;;;;;;;14.90;99.90;;;;;;5111409;28;20296;-74
2022/11/12 14:31:26;;;;;;;;;;;14.90;99.90;;;;;;5104148;28;19949;-74
2022/11/12 14:33:52;;;;;;;;;;;14.80;99.90;;;;;;5105447;28;19924;-74
2022/11/12 14:36:21;;;;;;;;;;;14.80;99.90;;;;;;5103903;28;19932;-74
2022/11/12 14:38:49;;;;;;;;;;;14.70;99.90;;;;;;5101681;28;20347;-73
2022/11/12 14:41:19;;;;;;;;;;;14.60;99.90;;;;;;5081832;22;19934;-69
2022/11/12 14:43:46;;;;;;;;;;;14.60;99.90;;;;;;4998133;28;19933;-73
2022/11/12 14:46:28;;;;;;;;;;;14.50;99.90;;;;;;5000991;28;19929;-74
2022/11/12 14:48:57;;;;;;;;;;;14.50;99.90;;;;;;5001031;28;19999;-73
2022/11/12 14:51:24;;;;;;;;;;;14.50;99.90;;;;;;5000018;28;20311;-74
2022/11/12 14:53:53;;;;;;;;;;;14.30;99.90;;;;;;5000675;28;20385;-74
2022/11/12 14:56:26;;;;;;;;;;;14.30;99.90;;;;;;5001356;28;20016;-75
2022/11/12 14:58:53;;;;;;;;;;;14.20;99.90;;;;;;4997127;28;20321;-74
2022/11/12 15:01:21;;;;;;;;;;;14.20;99.90;;;;;;5001878;28;20004;-73